Time;durP1;ratioP1;P1;durP2;ratioP2;P2;SDS_P1;SDS_P2;PMS_P1;PMS_P2;Temp;Humidity;BMP_temperature;BMP_pressure;BME280_temperature;BME280_humidity;BME280_pressure;Samples;Min_cycle;Max_cycle;Signal;HPM_P1;HPM_P2
2021/12/17 00:07:11;;;;;;;10.40;8.02;;;;;;;10.26;53.04;102239.06;144992;636;6004;-81
2021/12/17 00:09:38;;;;;;;11.73;7.93;;;;;;;10.10;55.09;102235.62;144992;583;6012;-82
2021/12/17 00:12:11;;;;;;;10.02;8.32;;;;;;;10.09;53.92;102239.03;144992;563;6013;-83
2021/12/17 00:14:40;;;;;;;11.35;8.10;;;;;;;10.19;55.35;102242.16;144992;569;6004;-82
2021/12/17 00:17:12;;;;;;;10.48;7.93;;;;;;;9.91;53.15;102248.34;144992;695;6004;-82
2021/12/17 00:50:33;;;;;;;9.00;6.60;;;;;;;8.82;55.56;102224.72;144992;571;6002;-81
2021/12/17 00:53:00;;;;;;;8.48;6.68;;;;;;;8.95;55.74;102223.75;144992;564;6002;-83
2021/12/17 00:55:27;;;;;;;10.07;7.82;;;;;;;8.90;55.67;102223.47;144992;576;6002;-81
2021/12/17 00:57:53;;;;;;;9.98;6.80;;;;;;;8.86;55.77;102224.09;144993;596;6002;-81
2021/12/17 01:00:23;;;;;;;10.13;7.65;;;;;;;8.94;55.63;102215.09;144993;765;6002;-82
2021/12/17 01:02:50;;;;;;;7.90;6.50;;;;;;;8.86;55.46;102218.91;144993;628;6002;-82
2021/12/17 01:05:25;;;;;;;9.25;6.35;;;;;;;8.74;55.41;102221.66;144993;595;6002;-83
2021/12/17 01:07:53;;;;;;;7.47;6.40;;;;;;;8.78;55.21;102212.38;144993;569;6002;-82
2021/12/17 01:10:27;;;;;;;6.62;5.70;;;;;;;8.68;55.53;102214.38;144993;595;6002;-82
2021/12/17 01:12:53;;;;;;;6.72;5.78;;;;;;;8.75;55.36;102209.59;144993;601;6002;-82
2021/12/17 01:15:21;;;;;;;9.68;5.68;;;;;;;8.68;55.12;102208.31;144993;564;6002;-82
2021/12/17 01:17:52;;;;;;;7.22;5.53;;;;;;;8.65;54.81;102211.66;144993;564;6002;-82
2021/12/17 01:20:47;;;;;;;8.13;6.28;;;;;;;8.86;55.22;102208.53;144993;583;6002;-84
2021/12/17 01:23:48;;;;;;;7.72;5.95;;;;;;;9.02;53.57;102202.59;144993;567;6000;-82
2021/12/17 01:42:44;;;;;;;4.83;3.87;;;;;;;9.23;50.65;102201.28;144993;564;6002;-82
2021/12/17 01:45:11;;;;;;;5.80;4.12;;;;;;;9.40;52.29;102204.88;144992;583;6002;-82
2021/12/17 01:47:38;;;;;;;4.45;3.85;;;;;;;9.20;50.57;102198.50;144993;608;6002;-83
2021/12/17 01:56:03;;;;;;;5.57;4.85;;;;;;;8.70;53.45;102202.47;144993;585;6000;-82
2021/12/17 02:01:16;;;;;;;8.02;6.47;;;;;;;9.19;53.14;102201.00;144993;592;6000;-85
2021/12/17 02:03:47;;;;;;;8.10;7.10;;;;;;;9.43;53.98;102199.87;144993;600;6002;-84
2021/12/17 02:06:18;;;;;;;9.00;6.90;;;;;;;9.66;54.43;102196.81;144993;629;6002;-86
2021/12/17 02:08:47;;;;;;;8.13;7.12;;;;;;;9.86;54.74;102198.81;144993;606;6002;-81
2021/12/17 02:19:59;;;;;;;8.23;6.72;;;;;;;9.76;54.68;102197.41;144993;577;6004;-80
2021/12/17 02:33:39;;;;;;;8.02;6.85;;;;;;;9.42;55.04;102195.47;144993;598;6004;-80
2021/12/17 02:36:06;;;;;;;9.13;7.20;;;;;;;9.33;55.71;102194.06;144994;570;5002;-84
2021/12/17 02:38:38;;;;;;;8.15;7.30;;;;;;;9.39;55.82;102191.81;144994;579;5002;-84
2021/12/17 02:46:35;;;;;;;9.45;7.40;;;;;;;9.37;55.19;102183.97;144994;591;5002;-84
2021/12/17 02:49:03;;;;;;;9.23;6.93;;;;;;;9.14;54.47;102181.72;144994;606;5002;-85
2021/12/17 02:51:29;;;;;;;9.20;7.35;;;;;;;9.08;56.05;102183.16;144994;583;5002;-84
2021/12/17 02:53:58;;;;;;;9.95;7.90;;;;;;;8.95;55.88;102180.62;144994;607;5002;-82
2021/12/17 02:56:25;;;;;;;10.90;7.40;;;;;;;8.79;55.65;102186.56;144994;694;5002;-84
2021/12/17 02:58:53;;;;;;;11.00;7.78;;;;;;;8.77;56.12;102185.59;144994;577;5002;-83
2021/12/17 03:01:20;;;;;;;9.35;7.50;;;;;;;8.81;55.86;102194.44;144994;563;5002;-82
2021/12/17 03:03:50;;;;;;;10.65;8.07;;;;;;;8.64;56.73;102196.03;144994;654;5002;-82
2021/12/17 03:06:17;;;;;;;11.82;8.15;;;;;;;8.47;56.65;102197.56;144994;592;5002;-83
2021/12/17 03:08:46;;;;;;;10.75;7.87;;;;;;;8.40;56.95;102192.75;144994;592;5002;-83
2021/12/17 03:11:14;;;;;;;9.57;7.28;;;;;;;8.22;57.47;102195.97;144994;565;5002;-83
2021/12/17 03:13:43;;;;;;;7.85;6.45;;;;;;;8.03;57.31;102196.50;144994;565;5002;-81
2021/12/17 03:16:23;;;;;;;8.40;6.87;;;;;;;8.32;57.17;102189.72;144993;600;5002;-84
2021/12/17 03:19:06;;;;;;;10.20;7.80;;;;;;;8.59;57.07;102182.78;144994;569;5002;-82
2021/12/17 03:24:18;;;;;;;8.60;7.27;;;;;;;8.99;56.54;102192.06;144994;722;5004;-83
2021/12/17 03:26:46;;;;;;;8.20;7.03;;;;;;;8.82;56.43;102194.53;144993;647;6004;-82
2021/12/17 03:29:13;;;;;;;8.10;7.12;;;;;;;8.74;56.09;102190.59;144994;574;5002;-83
2021/12/17 03:31:39;;;;;;;10.07;7.43;;;;;;;8.85;56.19;102188.66;144994;579;5002;-83
2021/12/17 03:34:20;;;;;;;9.32;6.53;;;;;;;8.10;56.76;102190.06;144994;569;5002;-81
2021/12/17 03:36:51;;;;;;;9.30;6.93;;;;;;;7.75;57.82;102194.75;144994;573;5002;-84
2021/12/17 03:39:18;;;;;;;9.05;6.45;;;;;;;7.53;59.12;102200.19;144994;572;5002;-83
2021/12/17 03:41:50;;;;;;;9.80;7.03;;;;;;;7.37;59.71;102194.81;144994;749;5002;-83
2021/12/17 03:44:20;;;;;;;10.98;7.60;;;;;;;7.41;60.07;102184.78;144994;663;5002;-81
2021/12/17 03:46:50;;;;;;;9.45;7.82;;;;;;;7.32;60.25;102196.19;144994;644;5002;-82
2021/12/17 03:49:18;;;;;;;9.15;7.50;;;;;;;7.35;60.16;102186.06;144994;575;5002;-80
2021/12/17 03:52:03;;;;;;;9.30;7.35;;;;;;;7.48;59.85;102187.75;144994;596;5002;-82
2021/12/17 03:54:34;;;;;;;9.15;7.62;;;;;;;7.83;59.02;102190.06;144994;590;5002;-83
2021/12/17 03:57:00;;;;;;;9.90;7.93;;;;;;;7.85;58.87;102185.00;144994;634;5002;-83
2021/12/17 03:59:27;;;;;;;10.32;7.47;;;;;;;7.58;59.32;102191.06;144994;571;5002;-84
2021/12/17 04:01:54;;;;;;;11.57;8.10;;;;;;;7.41;60.29;102187.38;144994;602;5002;-83
2021/12/17 04:04:20;;;;;;;9.75;7.95;;;;;;;7.37;60.31;102195.72;144994;570;5002;-82
2021/12/17 04:06:47;;;;;;;10.50;8.10;;;;;;;7.41;60.29;102191.62;144994;572;5002;-83
2021/12/17 04:09:13;;;;;;;11.30;8.63;;;;;;;7.43;59.80;102190.94;144994;571;5002;-83
2021/12/17 04:11:41;;;;;;;10.65;8.68;;;;;;;7.50;59.97;102188.78;144994;576;5002;-82
2021/12/17 04:14:07;;;;;;;11.18;8.88;;;;;;;7.99;58.98;102189.37;144994;569;5002;-82
2021/12/17 04:16:35;;;;;;;10.00;8.43;;;;;;;8.31;58.96;102196.56;144994;640;5002;-83
2021/12/17 04:19:02;;;;;;;10.13;8.02;;;;;;;8.12;57.16;102189.34;144994;585;5002;-83
2021/12/17 04:21:28;;;;;;;10.93;7.85;;;;;;;8.44;58.04;102200.84;144994;666;5002;-81
2021/12/17 04:23:56;;;;;;;10.02;7.47;;;;;;;8.49;57.65;102191.66;144994;565;5002;-83
2021/12/17 04:26:27;;;;;;;13.27;8.68;;;;;;;8.50;57.43;102196.03;144993;633;5002;-82
2021/12/17 04:28:54;;;;;;;12.52;7.53;;;;;;;8.21;55.81;102199.37;144994;564;5002;-83
2021/12/17 04:31:26;;;;;;;11.48;8.45;;;;;;;8.33;56.88;102194.06;144994;692;5002;-82
2021/12/17 04:33:52;;;;;;;10.70;7.80;;;;;;;8.31;57.14;102193.97;144994;596;5002;-83
2021/12/17 04:36:25;;;;;;;12.35;8.82;;;;;;;8.47;56.84;102200.16;144994;599;5002;-82
2021/12/17 04:38:51;;;;;;;11.23;8.55;;;;;;;8.51;56.53;102192.66;144994;564;5002;-83
2021/12/17 04:41:42;;;;;;;11.12;8.60;;;;;;;8.65;56.46;102190.94;144994;650;5002;-84
2021/12/17 04:44:24;;;;;;;12.10;8.15;;;;;;;8.57;55.63;102183.47;144994;587;5004;-84
2021/12/17 04:47:03;;;;;;;12.90;8.20;;;;;;;8.78;56.37;102187.38;144994;593;5004;-82
2021/12/17 04:58:01;;;;;;;10.27;8.35;;;;;;;8.56;56.47;102192.94;144994;584;5002;-84
2021/12/17 05:00:30;;;;;;;11.25;8.07;;;;;;;8.52;55.86;102193.56;144994;672;5002;-84
2021/12/17 05:02:59;;;;;;;12.20;8.20;;;;;;;8.31;56.69;102193.09;144994;603;5002;-81
2021/12/17 05:05:29;;;;;;;13.07;9.27;;;;;;;8.33;56.77;102194.94;144994;576;5002;-83
2021/12/17 05:08:02;;;;;;;12.23;9.10;;;;;;;8.32;56.57;102198.34;144994;654;5002;-81
2021/12/17 05:18:56;;;;;;;12.68;8.48;;;;;;;8.49;55.71;102189.06;144994;567;5004;-82
2021/12/17 05:21:24;;;;;;;13.15;8.13;;;;;;;8.12;55.91;102188.44;144994;646;5004;-84
2021/12/17 05:23:51;;;;;;;11.05;8.18;;;;;;;8.19;56.67;102193.19;144994;577;5004;-83
2021/12/17 05:26:20;;;;;;;9.25;7.10;;;;;;;7.90;55.64;102188.78;144993;602;5005;-82
2021/12/17 05:28:50;;;;;;;9.95;6.87;;;;;;;7.76;56.07;102193.03;144994;642;5002;-82
2021/12/17 05:31:21;;;;;;;8.85;6.40;;;;;;;7.59;55.77;102199.72;144994;648;5002;-83
2021/12/17 05:33:50;;;;;;;11.63;7.32;;;;;;;7.85;57.37;102206.56;144994;572;5002;-83
2021/12/17 05:36:20;;;;;;;11.20;7.32;;;;;;;7.65;55.61;102201.78;144994;609;5002;-82
2021/12/17 05:38:47;;;;;;;10.10;6.32;;;;;;;7.73;56.11;102200.59;144994;626;5002;-81
2021/12/17 05:41:14;;;;;;;8.25;5.78;;;;;;;7.26;56.46;102204.44;144994;565;5002;-81
2021/12/17 05:43:40;;;;;;;10.18;6.40;;;;;;;7.54;56.53;102208.84;144994;566;5002;-80
2021/12/17 05:46:12;;;;;;;8.88;6.18;;;;;;;7.24;56.75;102206.91;144994;605;5002;-80
2021/12/17 05:48:40;;;;;;;9.40;5.90;;;;;;;7.22;56.51;102213.69;144994;564;5002;-83
2021/12/17 05:51:11;;;;;;;7.12;5.60;;;;;;;7.01;57.40;102210.50;144994;626;5002;-79
2021/12/17 05:53:38;;;;;;;9.57;5.68;;;;;;;6.99;58.33;102203.47;144994;563;5002;-81
2021/12/17 05:56:05;;;;;;;9.52;7.32;;;;;;;7.14;57.75;102211.34;144994;611;5002;-80
2021/12/17 05:58:32;;;;;;;12.05;6.47;;;;;;;7.22;57.53;102211.09;144994;609;5002;-81
2021/12/17 06:00:58;;;;;;;11.27;7.18;;;;;;;7.44;56.95;102208.25;144994;584;5002;-82
2021/12/17 06:03:25;;;;;;;11.82;7.32;;;;;;;7.50;57.13;102204.28;144994;598;5002;-81
2021/12/17 06:05:52;;;;;;;12.80;8.18;;;;;;;7.70;56.64;102195.22;144994;610;5002;-81
2021/12/17 06:08:19;;;;;;;9.63;7.55;;;;;;;8.28;55.57;102201.53;144993;566;5002;-81
2021/12/17 06:10:45;;;;;;;17.40;7.82;;;;;;;8.67;54.13;102210.03;144994;582;5002;-81
2021/12/17 06:13:12;;;;;;;14.05;8.25;;;;;;;9.34;53.90;102217.47;144994;564;5002;-81
2021/12/17 06:15:38;;;;;;;14.07;8.32;;;;;;;9.62;52.96;102204.41;144994;651;5002;-81
2021/12/17 06:18:05;;;;;;;13.73;8.10;;;;;;;10.17;50.31;102204.00;144994;570;5002;-81
2021/12/17 06:20:31;;;;;;;12.37;8.88;;;;;;;10.47;51.41;102210.84;144994;572;5002;-81
2021/12/17 06:22:58;;;;;;;12.50;7.45;;;;;;;10.78;49.69;102212.47;144994;618;5002;-81
2021/12/17 06:25:24;;;;;;;16.85;9.10;;;;;;;11.29;50.25;102205.56;144994;641;5002;-81
2021/12/17 06:27:51;;;;;;;12.65;7.10;;;;;;;11.43;45.53;102207.16;144994;600;5002;-79
2021/12/17 06:30:19;;;;;;;7.97;6.68;;;;;;;11.42;45.18;102204.47;144994;574;5002;-81
2021/12/17 06:32:46;;;;;;;9.23;7.22;;;;;;;11.71;48.42;102212.84;144994;571;5002;-80
2021/12/17 06:35:13;;;;;;;10.25;7.43;;;;;;;11.74;48.33;102210.38;144994;570;5002;-81
2021/12/17 06:37:41;;;;;;;8.95;7.28;;;;;;;11.97;49.00;102214.13;144994;635;5002;-83
2021/12/17 06:40:09;;;;;;;13.02;7.28;;;;;;;12.05;47.03;102214.50;144994;608;5002;-82
2021/12/17 06:42:35;;;;;;;10.85;6.15;;;;;;;12.09;46.74;102216.41;144994;610;5002;-81
2021/12/17 06:45:06;;;;;;;10.32;6.72;;;;;;;12.30;48.80;102224.38;144994;565;5002;-83
2021/12/17 06:47:35;;;;;;;12.15;6.65;;;;;;;12.51;48.59;102217.53;144994;592;5002;-82
2021/12/17 06:58:54;;;;;;;9.68;6.47;;;;;;;13.68;46.46;102226.97;144994;566;5004;-82
2021/12/17 07:10:13;;;;;;;10.43;6.30;;;;;;;14.10;45.94;102242.56;144994;583;4566;-83
2021/12/17 07:18:38;;;;;;;7.33;4.80;;;;;;;12.41;42.26;102253.50;144992;562;6004;-83
2021/12/17 07:21:06;;;;;;;7.37;5.53;;;;;;;13.06;45.83;102255.62;144991;569;6002;-81
2021/12/17 07:30:58;;;;;;;7.10;5.57;;;;;;;13.92;44.94;102255.78;144992;639;6004;-82
2021/12/17 07:32:19;;;;;;;8.98;5.12;;;;;;;14.31;44.29;102241.62;144992;563;6002;-82
2021/12/17 07:40:18;;;;;;;8.98;5.15;;;;;;;15.01;43.73;102248.59;144992;666;6002;-90
2021/12/17 07:42:45;;;;;;;5.05;4.55;;;;;;;14.79;38.35;102241.72;144992;601;6002;-81
2021/12/17 07:45:12;;;;;;;9.80;6.20;;;;;;;15.12;43.63;102233.31;144992;630;6002;-83
2021/12/17 07:47:38;;;;;;;11.98;7.05;;;;;;;15.03;42.92;102227.75;144992;591;6002;-82
2021/12/17 07:50:05;;;;;;;10.90;7.60;;;;;;;15.04;42.79;102225.19;144992;847;6002;-85
2021/12/17 07:52:31;;;;;;;13.35;8.95;;;;;;;14.89;42.27;102232.50;144992;659;6002;-82
2021/12/17 07:54:58;;;;;;;10.75;9.13;;;;;;;14.73;38.66;102230.13;144992;569;6002;-81
2021/12/17 07:57:24;;;;;;;12.02;9.20;;;;;;;14.86;42.87;102225.44;144992;623;6002;-82
2021/12/17 07:59:51;;;;;;;10.18;7.93;;;;;;;14.75;42.34;102221.53;144992;589;6002;-82
2021/12/17 08:02:18;;;;;;;9.70;5.82;;;;;;;14.90;42.27;102213.34;144992;571;6002;-82
2021/12/17 08:04:44;;;;;;;10.07;6.12;;;;;;;15.03;41.67;102206.81;144992;585;6002;-83
2021/12/17 08:07:10;;;;;;;6.40;5.35;;;;;;;14.94;41.55;102214.38;144992;569;6002;-82
2021/12/17 08:09:39;;;;;;;7.15;5.50;;;;;;;15.12;41.43;102212.38;144992;614;6002;-82
2021/12/17 08:12:08;;;;;;;6.60;5.03;;;;;;;15.31;41.87;102205.19;144992;612;6002;-83
2021/12/17 08:14:34;;;;;;;6.78;5.12;;;;;;;15.22;37.31;102195.28;144992;572;6002;-80
2021/12/17 08:17:16;;;;;;;6.32;4.68;;;;;;;15.18;37.25;102196.91;144992;584;6002;-82
2021/12/17 08:25:15;;;;;;;5.78;4.53;;;;;;;15.27;37.75;102198.97;144992;794;6002;-83
2021/12/17 08:27:51;;;;;;;5.75;4.70;;;;;;;15.26;41.32;102198.91;144992;567;6002;-83
2021/12/17 08:30:24;;;;;;;6.55;4.80;;;;;;;15.34;41.25;102200.94;144992;638;6002;-81
2021/12/17 08:32:51;;;;;;;6.62;4.68;;;;;;;14.86;40.23;102194.06;144992;689;6002;-82
2021/12/17 08:35:19;;;;;;;7.07;5.35;;;;;;;15.23;40.70;102190.09;144992;633;6002;-81
2021/12/17 08:37:46;;;;;;;10.13;7.07;;;;;;;15.41;40.36;102187.22;144992;634;6002;-82
2021/12/17 08:40:12;;;;;;;7.82;6.40;;;;;;;15.57;39.93;102178.16;144992;566;6002;-81
2021/12/17 08:42:39;;;;;;;7.10;5.72;;;;;;;15.68;39.21;102175.84;144992;572;6002;-82
2021/12/17 08:45:09;;;;;;;6.50;5.65;;;;;;;15.91;40.52;102178.38;144992;569;6002;-80
2021/12/17 08:47:36;;;;;;;7.97;5.72;;;;;;;16.02;40.53;102169.09;144992;606;6002;-82
2021/12/17 08:50:06;;;;;;;9.40;7.37;;;;;;;16.22;40.36;102156.59;144992;572;6002;-82
2021/12/17 08:52:34;;;;;;;8.30;6.75;;;;;;;16.19;40.20;102153.00;144992;578;6002;-81
2021/12/17 08:55:03;;;;;;;11.12;7.05;;;;;;;16.29;39.66;102160.31;144992;570;6002;-82
2021/12/17 08:57:31;;;;;;;10.52;7.43;;;;;;;16.55;40.79;102168.00;144992;594;6002;-82
2021/12/17 09:00:04;;;;;;;13.30;10.00;;;;;;;16.77;40.44;102165.13;144992;572;6002;-83
2021/12/17 09:02:30;;;;;;;9.65;6.95;;;;;;;16.98;39.98;102164.84;144992;563;6002;-81
2021/12/17 09:04:57;;;;;;;10.82;8.45;;;;;;;16.99;39.30;102161.38;144992;567;6002;-82
2021/12/17 09:07:24;;;;;;;10.52;8.50;;;;;;;17.08;38.30;102160.72;144991;638;6002;-81
2021/12/17 09:09:53;;;;;;;13.20;9.68;;;;;;;17.23;39.18;102150.62;144992;569;6002;-82
2021/12/17 09:12:21;;;;;;;13.62;7.65;;;;;;;17.37;39.26;102143.09;144992;594;6002;-80
2021/12/17 09:14:49;;;;;;;8.23;5.22;;;;;;;16.89;34.48;102127.00;144992;602;6002;-81
2021/12/17 09:17:16;;;;;;;8.13;5.47;;;;;;;17.22;38.96;102137.47;144992;569;6002;-84
2021/12/17 09:19:43;;;;;;;6.45;5.07;;;;;;;17.16;34.54;102122.44;144992;635;6002;-81
2021/12/17 09:22:09;;;;;;;8.13;4.90;;;;;;;17.22;38.14;102122.59;144992;633;6002;-80
2021/12/17 09:24:36;;;;;;;5.00;4.30;;;;;;;17.29;36.83;102131.53;144992;681;6002;-81
2021/12/17 09:27:02;;;;;;;6.07;4.05;;;;;;;17.35;38.58;102126.41;144992;583;6002;-81
2021/12/17 09:29:29;;;;;;;8.60;4.28;;;;;;;17.48;38.11;102118.84;144992;594;6002;-80
2021/12/17 09:31:56;;;;;;;5.97;3.85;;;;;;;17.56;37.87;102109.41;144992;676;6002;-81
2021/12/17 09:34:23;;;;;;;6.72;4.57;;;;;;;17.34;34.10;102101.03;144992;673;6002;-82
2021/12/17 09:36:50;;;;;;;4.70;3.72;;;;;;;17.46;36.49;102105.69;144992;582;6002;-81
2021/12/17 09:39:17;;;;;;;3.92;3.50;;;;;;;17.35;37.28;102102.78;144992;563;6002;-83
2021/12/17 09:41:47;;;;;;;3.58;3.20;;;;;;;17.29;36.42;102097.41;144992;594;6002;-80
2021/12/17 09:44:18;;;;;;;4.35;3.60;;;;;;;17.41;37.65;102096.81;144992;603;6002;-83
2021/12/17 09:46:46;;;;;;;10.65;4.25;;;;;;;17.33;34.02;102082.62;144992;585;6002;-82
2021/12/17 09:49:14;;;;;;;4.05;3.65;;;;;;;16.73;32.78;102087.22;144992;567;6002;-80
2021/12/17 09:51:41;;;;;;;4.57;3.45;;;;;;;16.86;37.43;102091.09;144992;574;6002;-81
2021/12/17 09:54:08;;;;;;;4.37;3.87;;;;;;;16.73;36.96;102086.34;144992;619;6002;-81
2021/12/17 09:56:34;;;;;;;4.70;4.20;;;;;;;16.72;34.17;102080.22;144992;603;6002;-82
2021/12/17 09:59:01;;;;;;;5.93;3.70;;;;;;;17.07;36.66;102074.09;144992;671;6002;-83
2021/12/17 10:01:32;;;;;;;7.30;4.10;;;;;;;17.07;36.24;102067.16;144992;607;6002;-82
2021/12/17 10:04:31;;;;;;;5.72;3.42;;;;;;;16.84;34.84;102059.53;144992;613;6002;-80
2021/12/17 10:07:25;;;;;;;5.90;4.18;;;;;;;17.06;36.08;102051.38;144992;620;6004;-82
2021/12/17 10:09:57;;;;;;;7.85;5.20;;;;;;;17.28;35.68;102051.03;144992;634;6002;-83
2021/12/17 10:12:36;;;;;;;7.00;5.15;;;;;;;17.45;35.68;102045.25;144992;596;6002;-80
2021/12/17 10:15:17;;;;;;;6.07;5.28;;;;;;;17.59;35.82;102044.72;144992;600;6002;-81
2021/12/17 10:18:01;;;;;;;6.25;5.28;;;;;;;17.42;35.58;102046.09;144992;613;6002;-82
2021/12/17 10:20:31;;;;;;;6.40;4.78;;;;;;;17.06;35.95;102044.38;144992;739;6002;-80
2021/12/17 10:23:00;;;;;;;8.98;4.15;;;;;;;16.40;35.64;102046.19;144992;566;6002;-81
2021/12/17 10:25:29;;;;;;;4.82;3.97;;;;;;;16.43;36.24;102046.25;144992;610;6002;-81
2021/12/17 10:27:59;;;;;;;5.32;4.35;;;;;;;16.65;36.12;102049.44;144992;699;6002;-81
2021/12/17 10:30:27;;;;;;;8.27;6.47;;;;;;;16.66;36.01;102056.47;144992;673;6002;-81
2021/12/17 10:32:58;;;;;;;6.20;4.47;;;;;;;16.76;36.06;102042.72;144992;589;6002;-82
2021/12/17 10:35:27;;;;;;;4.65;3.42;;;;;;;16.50;35.40;102042.06;144992;575;6002;-81
2021/12/17 10:37:59;;;;;;;4.68;3.40;;;;;;;16.83;36.10;102034.19;144992;587;6002;-81
2021/12/17 10:40:33;;;;;;;5.12;4.18;;;;;;;16.49;34.20;102032.41;144992;570;6002;-82
2021/12/17 10:43:32;;;;;;;4.18;3.78;;;;;;;16.92;34.69;102023.03;144992;599;6002;-81
2021/12/17 10:46:08;;;;;;;4.00;3.65;;;;;;;16.90;33.96;102014.25;144992;689;6004;-81
2021/12/17 10:48:56;;;;;;;4.35;3.90;;;;;;;17.09;35.33;102010.34;144992;619;6004;-81
2021/12/17 10:51:32;;;;;;;4.40;3.97;;;;;;;17.21;35.96;102001.84;144992;575;6004;-81
2021/12/17 10:54:04;;;;;;;4.20;3.80;;;;;;;17.01;33.67;101991.78;144992;572;6004;-82
2021/12/17 10:56:37;;;;;;;5.22;4.72;;;;;;;17.17;35.62;101979.03;144992;571;6004;-82
2021/12/17 10:59:10;;;;;;;5.15;4.65;;;;;;;17.12;35.78;101970.19;144991;642;6000;-83
2021/12/17 11:01:44;;;;;;;5.97;4.47;;;;;;;17.27;35.46;101949.50;144992;569;6002;-81
2021/12/17 11:04:21;;;;;;;5.47;4.20;;;;;;;17.29;34.99;101950.47;144991;704;6002;-82
2021/12/17 11:07:05;;;;;;;4.95;4.15;;;;;;;17.08;32.80;101940.34;144992;586;6002;-82
2021/12/17 11:10:02;;;;;;;5.87;4.93;;;;;;;17.15;35.52;101944.03;144992;581;6002;-82
2021/12/17 11:12:47;;;;;;;4.72;4.10;;;;;;;16.81;33.17;101945.81;144992;629;6004;-85
2021/12/17 11:15:18;;;;;;;;;;;;;;;16.88;36.11;101937.28;144997;913;6002;-83
2021/12/17 11:17:47;;;;;;;6.35;4.47;;;;;;;16.80;34.46;101933.56;144997;591;6002;-81
2021/12/17 11:20:20;;;;;;;5.30;4.78;;;;;;;16.93;36.26;101924.28;144992;571;6002;-84
2021/12/17 11:22:48;;;;;;;6.70;4.60;;;;;;;17.03;35.63;101915.75;144992;625;6002;-81
2021/12/17 11:25:17;;;;;;;7.22;4.45;;;;;;;17.12;35.60;101909.84;144992;612;6002;-83
2021/12/17 11:27:44;;;;;;;7.22;4.30;;;;;;;16.97;35.76;101902.50;144992;693;6002;-81
2021/12/17 11:30:23;;;;;;;5.43;3.97;;;;;;;17.05;35.92;101903.56;144992;581;6002;-82
2021/12/17 11:32:51;;;;;;;5.40;3.87;;;;;;;17.00;34.64;101900.81;144992;609;6002;-84
2021/12/17 11:35:20;;;;;;;5.60;4.40;;;;;;;16.74;35.75;101902.84;144992;586;6002;-81
2021/12/17 11:37:49;;;;;;;6.50;4.03;;;;;;;16.89;36.25;101890.97;144992;604;6002;-81
2021/12/17 11:40:27;;;;;;;4.90;4.22;;;;;;;16.98;36.18;101891.16;144992;589;6002;-82
2021/12/17 11:43:49;;;;;;;5.12;4.10;;;;;;;17.04;35.63;101886.06;144992;583;6002;-83
2021/12/17 11:46:18;;;;;;;5.30;4.20;;;;;;;16.91;36.13;101882.28;144992;592;6004;-81
2021/12/17 11:48:59;;;;;;;8.90;5.00;;;;;;;16.75;35.74;101872.25;144992;568;6004;-82
2021/12/17 11:51:31;;;;;;;4.95;4.00;;;;;;;16.79;36.28;101872.34;144992;583;6004;-82
2021/12/17 11:54:25;;;;;;;4.60;4.20;;;;;;;16.59;35.83;101877.16;144992;672;6004;-82
2021/12/17 11:56:55;;;;;;;3.92;3.40;;;;;;;16.71;35.55;101867.81;144992;565;6002;-82
2021/12/17 11:59:43;;;;;;;6.20;3.92;;;;;;;16.57;35.89;101863.13;144992;642;6002;-82
2021/12/17 12:02:24;;;;;;;3.95;3.55;;;;;;;16.79;35.63;101850.50;144992;579;6002;-83
2021/12/17 12:05:02;;;;;;;4.55;4.00;;;;;;;16.74;35.96;101847.78;144992;597;6002;-83
2021/12/17 12:07:34;;;;;;;4.18;3.78;;;;;;;16.83;35.29;101848.00;144992;593;6002;-84
2021/12/17 12:10:21;;;;;;;4.95;3.95;;;;;;;16.79;35.53;101847.88;144992;638;6002;-81
2021/12/17 12:12:58;;;;;;;4.25;3.78;;;;;;;16.82;35.40;101843.59;144992;629;6002;-82
2021/12/17 12:15:31;;;;;;;6.57;4.32;;;;;;;16.83;35.37;101844.47;144992;564;6002;-81
2021/12/17 12:18:15;;;;;;;3.83;3.53;;;;;;;16.76;35.47;101853.06;144992;623;6002;-84
2021/12/17 12:20:55;;;;;;;5.00;4.10;;;;;;;16.80;35.52;101849.66;144992;638;6002;-82
2021/12/17 12:23:42;;;;;;;4.97;3.87;;;;;;;16.78;35.18;101848.72;144992;594;6002;-84
2021/12/17 12:26:37;;;;;;;5.43;4.68;;;;;;;16.76;35.16;101858.31;144992;659;6002;-81
2021/12/17 12:29:06;;;;;;;5.37;4.82;;;;;;;16.69;35.95;101859.91;144992;641;6004;-84
2021/12/17 12:31:41;;;;;;;5.28;4.03;;;;;;;16.33;35.73;101853.81;144992;595;6004;-84
2021/12/17 12:34:15;;;;;;;5.78;4.10;;;;;;;16.45;35.80;101842.75;144992;572;6004;-83
2021/12/17 12:37:16;;;;;;;6.93;4.93;;;;;;;16.29;34.86;101844.13;144992;565;6004;-84
2021/12/17 12:40:15;;;;;;;6.50;4.70;;;;;;;16.25;35.33;101834.41;144992;577;6004;-83
2021/12/17 12:42:48;;;;;;;6.43;4.15;;;;;;;16.21;36.33;101826.44;144992;581;6011;-83
2021/12/17 12:45:17;;;;;;;5.37;4.65;;;;;;;16.24;36.23;101822.19;144992;579;6002;-87
2021/12/17 12:47:51;;;;;;;5.57;4.78;;;;;;;16.21;36.10;101814.25;144992;640;6002;-83
2021/12/17 12:50:25;;;;;;;5.32;4.50;;;;;;;16.00;35.18;101817.19;144991;590;6002;-82
2021/12/17 12:53:11;;;;;;;5.57;4.82;;;;;;;16.26;35.86;101815.22;144992;585;6002;-83
2021/12/17 12:55:48;;;;;;;7.05;4.30;;;;;;;15.86;36.97;101822.12;144992;613;6002;-83
2021/12/17 12:58:18;;;;;;;4.20;3.80;;;;;;;15.86;36.41;101824.72;144992;591;6004;-83
2021/12/17 13:00:56;;;;;;;4.82;4.03;;;;;;;15.92;36.79;101810.88;144992;565;6004;-85
2021/12/17 13:03:34;;;;;;;5.60;3.62;;;;;;;15.92;36.77;101805.66;144992;577;6004;-83
2021/12/17 13:06:01;;;;;;;4.47;3.87;;;;;;;15.70;36.74;101812.03;144992;625;6004;-84
2021/12/17 13:08:31;;;;;;;5.18;3.78;;;;;;;15.00;37.38;101812.78;144992;583;6004;-84
2021/12/17 13:11:04;;;;;;;4.10;3.53;;;;;;;15.15;37.53;101800.97;144992;567;6004;-84
2021/12/17 13:13:38;;;;;;;4.00;3.60;;;;;;;14.94;37.82;101802.13;144992;602;6004;-88
2021/12/17 13:16:35;;;;;;;4.57;3.42;;;;;;;14.79;37.75;101805.16;144992;574;6004;-86
2021/12/17 13:22:12;;;;;;;4.87;3.80;;;;;;;14.68;38.12;101785.66;144992;624;6002;-84
2021/12/17 13:24:40;;;;;;;6.53;3.90;;;;;;;14.73;38.20;101776.25;144992;566;6002;-82
2021/12/17 13:27:11;;;;;;;6.62;4.62;;;;;;;14.74;38.18;101787.59;144992;607;6002;-84
2021/12/17 13:29:41;;;;;;;7.00;4.70;;;;;;;14.66;38.58;101783.00;144992;610;6003;-83
2021/12/17 13:32:13;;;;;;;5.82;4.57;;;;;;;14.64;38.74;101766.41;144993;570;6002;-82
2021/12/17 13:34:58;;;;;;;14.38;5.95;;;;;;;14.60;39.49;101767.16;144993;609;6002;-85
2021/12/17 13:37:32;;;;;;;12.82;5.85;;;;;;;14.64;40.32;101761.19;144993;619;6002;-85
2021/12/17 13:40:21;;;;;;;8.52;6.70;;;;;;;14.56;40.77;101756.53;144993;589;6002;-87
2021/12/17 13:42:47;;;;;;;8.77;5.50;;;;;;;14.54;41.18;101746.06;144993;610;6002;-85
2021/12/17 13:45:21;;;;;;;5.65;4.47;;;;;;;14.52;41.05;101737.25;144993;583;6002;-83
2021/12/17 13:47:56;;;;;;;6.55;4.57;;;;;;;14.52;41.00;101727.72;144993;631;6002;-85
2021/12/17 13:50:35;;;;;;;5.07;3.70;;;;;;;14.44;40.82;101737.03;144993;564;6002;-85
2021/12/17 13:53:11;;;;;;;4.95;4.22;;;;;;;14.45;41.24;101735.31;144993;711;6002;-84
2021/12/17 13:55:46;;;;;;;6.95;4.72;;;;;;;14.42;41.35;101732.59;144993;689;6002;-86
2021/12/17 13:58:16;;;;;;;5.15;3.90;;;;;;;14.37;41.76;101732.47;144993;569;6002;-85
2021/12/17 14:00:47;;;;;;;4.07;3.55;;;;;;;14.36;41.33;101725.47;144993;674;6002;-86
2021/12/17 14:03:15;;;;;;;5.32;3.83;;;;;;;14.35;41.22;101718.47;144992;571;6002;-87
2021/12/17 14:06:10;;;;;;;5.50;4.10;;;;;;;14.27;41.28;101727.78;144992;632;6002;-85
2021/12/17 14:08:39;;;;;;;6.05;3.83;;;;;;;14.24;41.42;101723.38;144992;593;6000;-85
2021/12/17 14:11:30;;;;;;;7.12;4.30;;;;;;;14.21;41.60;101725.88;144991;609;6004;-86
2021/12/17 14:13:57;;;;;;;4.65;4.00;;;;;;;14.07;41.75;101725.44;144992;590;6000;-88
2021/12/17 14:16:31;;;;;;;4.68;3.45;;;;;;;13.97;40.80;101719.06;144992;609;6000;-90
2021/12/17 14:18:59;;;;;;;4.12;3.70;;;;;;;13.96;41.78;101712.06;144993;585;6000;-87
2021/12/17 14:21:30;;;;;;;7.62;5.57;;;;;;;14.01;41.88;101714.81;144993;573;6002;-85
2021/12/17 14:23:58;;;;;;;4.40;3.78;;;;;;;14.06;41.76;101718.47;144993;570;6002;-86
2021/12/17 14:26:30;;;;;;;9.60;4.65;;;;;;;14.08;41.71;101726.34;144993;574;6002;-84